sensor_id;sensor_type;location;lat;lon;timestamp;P1;durP1;ratioP1;P2;durP2;ratioP2
14688;SDS011;7432;48.728;9.154;2023-02-16T00:00:05;22.77;;;14.30;;
14688;SDS011;7432;48.728;9.154;2023-02-16T00:02:32;19.10;;;13.97;;
14688;SDS011;7432;48.728;9.154;2023-02-16T00:04:58;22.73;;;14.80;;
14688;SDS011;7432;48.728;9.154;2023-02-16T00:07:26;21.97;;;14.67;;
14688;SDS011;7432;48.728;9.154;2023-02-16T00:09:52;19.67;;;13.43;;
14688;SDS011;7432;48.728;9.154;2023-02-16T00:12:19;18.20;;;13.90;;
14688;SDS011;7432;48.728;9.154;2023-02-16T00:15:09;20.57;;;14.00;;
14688;SDS011;7432;48.728;9.154;2023-02-16T00:17:42;19.87;;;14.03;;
14688;SDS011;7432;48.728;9.154;2023-02-16T00:20:12;18.40;;;12.80;;
14688;SDS011;7432;48.728;9.154;2023-02-16T00:22:41;21.00;;;13.67;;
14688;SDS011;7432;48.728;9.154;2023-02-16T00:25:07;22.50;;;12.93;;
14688;SDS011;7432;48.728;9.154;2023-02-16T00:27:33;22.00;;;13.27;;
14688;SDS011;7432;48.728;9.154;2023-02-16T00:30:00;19.63;;;13.50;;
14688;SDS011;7432;48.728;9.154;2023-02-16T00:32:27;18.47;;;13.83;;
14688;SDS011;7432;48.728;9.154;2023-02-16T00:34:53;17.80;;;14.03;;
14688;SDS011;7432;48.728;9.154;2023-02-16T00:37:20;19.13;;;13.33;;
14688;SDS011;7432;48.728;9.154;2023-02-16T00:39:48;19.60;;;13.03;;
14688;SDS011;7432;48.728;9.154;2023-02-16T00:42:15;18.97;;;12.87;;
14688;SDS011;7432;48.728;9.154;2023-02-16T00:44:45;17.37;;;13.63;;
14688;SDS011;7432;48.728;9.154;2023-02-16T00:47:16;18.80;;;13.40;;
14688;SDS011;7432;48.728;9.154;2023-02-16T00:49:44;19.30;;;14.13;;
14688;SDS011;7432;48.728;9.154;2023-02-16T00:52:21;18.50;;;12.53;;
14688;SDS011;7432;48.728;9.154;2023-02-16T00:54:54;17.60;;;12.87;;
14688;SDS011;7432;48.728;9.154;2023-02-16T00:57:21;16.77;;;12.43;;
14688;SDS011;7432;48.728;9.154;2023-02-16T00:59:48;18.07;;;13.20;;
14688;SDS011;7432;48.728;9.154;2023-02-16T01:02:21;16.93;;;13.00;;
14688;SDS011;7432;48.728;9.154;2023-02-16T01:04:47;18.53;;;13.23;;
14688;SDS011;7432;48.728;9.154;2023-02-16T01:07:13;19.53;;;13.57;;
14688;SDS011;7432;48.728;9.154;2023-02-16T01:10:02;18.30;;;12.93;;
14688;SDS011;7432;48.728;9.154;2023-02-16T01:12:46;17.97;;;12.70;;
14688;SDS011;7432;48.728;9.154;2023-02-16T01:15:14;18.37;;;13.07;;
14688;SDS011;7432;48.728;9.154;2023-02-16T01:17:43;21.60;;;12.50;;
14688;SDS011;7432;48.728;9.154;2023-02-16T01:20:13;18.97;;;13.60;;
14688;SDS011;7432;48.728;9.154;2023-02-16T01:22:41;17.57;;;12.83;;
14688;SDS011;7432;48.728;9.154;2023-02-16T01:25:08;17.20;;;12.87;;
14688;SDS011;7432;48.728;9.154;2023-02-16T01:27:35;17.07;;;13.07;;
14688;SDS011;7432;48.728;9.154;2023-02-16T01:30:02;20.33;;;13.27;;
14688;SDS011;7432;48.728;9.154;2023-02-16T01:32:29;18.30;;;12.70;;
14688;SDS011;7432;48.728;9.154;2023-02-16T01:34:56;18.37;;;13.50;;
14688;SDS011;7432;48.728;9.154;2023-02-16T01:37:22;18.43;;;13.87;;
14688;SDS011;7432;48.728;9.154;2023-02-16T01:39:48;17.43;;;12.83;;
14688;SDS011;7432;48.728;9.154;2023-02-16T01:42:18;18.13;;;12.93;;
14688;SDS011;7432;48.728;9.154;2023-02-16T01:44:56;21.17;;;13.50;;
14688;SDS011;7432;48.728;9.154;2023-02-16T01:47:32;18.67;;;13.57;;
14688;SDS011;7432;48.728;9.154;2023-02-16T01:50:07;17.97;;;13.27;;
14688;SDS011;7432;48.728;9.154;2023-02-16T01:52:40;21.60;;;13.30;;
14688;SDS011;7432;48.728;9.154;2023-02-16T01:55:11;17.27;;;13.03;;
14688;SDS011;7432;48.728;9.154;2023-02-16T01:57:45;18.63;;;12.63;;
14688;SDS011;7432;48.728;9.154;2023-02-16T02:00:16;17.77;;;12.83;;
14688;SDS011;7432;48.728;9.154;2023-02-16T02:02:47;19.30;;;12.27;;
14688;SDS011;7432;48.728;9.154;2023-02-16T02:05:19;17.47;;;12.67;;
14688;SDS011;7432;48.728;9.154;2023-02-16T02:08:00;16.23;;;11.73;;
14688;SDS011;7432;48.728;9.154;2023-02-16T02:10:33;16.03;;;11.40;;
14688;SDS011;7432;48.728;9.154;2023-02-16T02:13:10;14.63;;;11.70;;
14688;SDS011;7432;48.728;9.154;2023-02-16T02:15:42;14.87;;;10.60;;
14688;SDS011;7432;48.728;9.154;2023-02-16T02:18:08;15.07;;;11.33;;
14688;SDS011;7432;48.728;9.154;2023-02-16T02:20:40;14.70;;;11.40;;
14688;SDS011;7432;48.728;9.154;2023-02-16T02:23:37;16.20;;;10.43;;
14688;SDS011;7432;48.728;9.154;2023-02-16T02:29:26;15.97;;;11.50;;
14688;SDS011;7432;48.728;9.154;2023-02-16T02:32:15;16.37;;;11.43;;
14688;SDS011;7432;48.728;9.154;2023-02-16T02:34:52;15.00;;;11.23;;
14688;SDS011;7432;48.728;9.154;2023-02-16T02:37:27;14.70;;;11.37;;
14688;SDS011;7432;48.728;9.154;2023-02-16T02:40:04;16.70;;;11.57;;
14688;SDS011;7432;48.728;9.154;2023-02-16T02:42:40;15.37;;;11.37;;
14688;SDS011;7432;48.728;9.154;2023-02-16T02:45:15;14.50;;;11.20;;
14688;SDS011;7432;48.728;9.154;2023-02-16T02:47:46;12.67;;;10.70;;
14688;SDS011;7432;48.728;9.154;2023-02-16T02:50:33;16.53;;;10.97;;
14688;SDS011;7432;48.728;9.154;2023-02-16T02:53:06;13.83;;;11.17;;
14688;SDS011;7432;48.728;9.154;2023-02-16T02:55:37;16.53;;;10.87;;
14688;SDS011;7432;48.728;9.154;2023-02-16T02:58:25;18.47;;;10.87;;
14688;SDS011;7432;48.728;9.154;2023-02-16T03:01:13;14.70;;;11.27;;
14688;SDS011;7432;48.728;9.154;2023-02-16T03:03:44;15.70;;;11.57;;
14688;SDS011;7432;48.728;9.154;2023-02-16T03:06:15;14.77;;;11.07;;
14688;SDS011;7432;48.728;9.154;2023-02-16T03:08:47;16.27;;;11.10;;
14688;SDS011;7432;48.728;9.154;2023-02-16T03:11:18;14.33;;;11.33;;
14688;SDS011;7432;48.728;9.154;2023-02-16T03:14:05;15.67;;;11.10;;
14688;SDS011;7432;48.728;9.154;2023-02-16T03:16:40;12.83;;;10.50;;
14688;SDS011;7432;48.728;9.154;2023-02-16T03:19:10;12.60;;;10.60;;
14688;SDS011;7432;48.728;9.154;2023-02-16T03:21:56;16.77;;;11.00;;
14688;SDS011;7432;48.728;9.154;2023-02-16T03:24:41;15.30;;;9.90;;
14688;SDS011;7432;48.728;9.154;2023-02-16T03:27:26;17.00;;;11.03;;
14688;SDS011;7432;48.728;9.154;2023-02-16T03:30:13;12.70;;;10.30;;
14688;SDS011;7432;48.728;9.154;2023-02-16T03:32:42;12.63;;;10.07;;
14688;SDS011;7432;48.728;9.154;2023-02-16T03:35:09;13.83;;;10.70;;
14688;SDS011;7432;48.728;9.154;2023-02-16T03:37:37;13.60;;;11.00;;
14688;SDS011;7432;48.728;9.154;2023-02-16T03:40:05;13.43;;;11.07;;
14688;SDS011;7432;48.728;9.154;2023-02-16T03:42:51;12.57;;;10.80;;
14688;SDS011;7432;48.728;9.154;2023-02-16T03:45:19;14.80;;;10.73;;
14688;SDS011;7432;48.728;9.154;2023-02-16T03:47:48;12.03;;;10.43;;
14688;SDS011;7432;48.728;9.154;2023-02-16T03:50:14;14.53;;;11.00;;
14688;SDS011;7432;48.728;9.154;2023-02-16T03:52:41;15.77;;;10.63;;
14688;SDS011;7432;48.728;9.154;2023-02-16T03:55:07;14.30;;;11.07;;
14688;SDS011;7432;48.728;9.154;2023-02-16T03:57:34;17.50;;;11.50;;
14688;SDS011;7432;48.728;9.154;2023-02-16T04:00:01;15.00;;;11.20;;
14688;SDS011;7432;48.728;9.154;2023-02-16T04:02:27;15.07;;;10.43;;
14688;SDS011;7432;48.728;9.154;2023-02-16T04:04:55;16.47;;;12.10;;
14688;SDS011;7432;48.728;9.154;2023-02-16T04:07:22;15.03;;;11.37;;
14688;SDS011;7432;48.728;9.154;2023-02-16T04:09:49;14.60;;;10.83;;
14688;SDS011;7432;48.728;9.154;2023-02-16T04:12:15;15.87;;;11.97;;
14688;SDS011;7432;48.728;9.154;2023-02-16T04:14:59;14.23;;;10.90;;
14688;SDS011;7432;48.728;9.154;2023-02-16T04:17:25;12.83;;;10.60;;
14688;SDS011;7432;48.728;9.154;2023-02-16T04:19:52;13.13;;;10.27;;
14688;SDS011;7432;48.728;9.154;2023-02-16T04:22:19;12.83;;;10.80;;
14688;SDS011;7432;48.728;9.154;2023-02-16T04:24:46;13.53;;;11.03;;
14688;SDS011;7432;48.728;9.154;2023-02-16T04:27:12;13.83;;;10.70;;
14688;SDS011;7432;48.728;9.154;2023-02-16T04:29:38;11.57;;;10.37;;
14688;SDS011;7432;48.728;9.154;2023-02-16T04:32:05;13.90;;;10.77;;
14688;SDS011;7432;48.728;9.154;2023-02-16T04:34:31;14.77;;;10.70;;
14688;SDS011;7432;48.728;9.154;2023-02-16T04:36:58;13.13;;;10.47;;
14688;SDS011;7432;48.728;9.154;2023-02-16T04:39:26;17.00;;;11.80;;
14688;SDS011;7432;48.728;9.154;2023-02-16T04:41:52;14.43;;;11.73;;
14688;SDS011;7432;48.728;9.154;2023-02-16T04:44:19;12.27;;;10.97;;
14688;SDS011;7432;48.728;9.154;2023-02-16T04:46:45;17.40;;;11.23;;
14688;SDS011;7432;48.728;9.154;2023-02-16T04:49:11;14.00;;;10.80;;
14688;SDS011;7432;48.728;9.154;2023-02-16T04:51:38;14.10;;;10.70;;
14688;SDS011;7432;48.728;9.154;2023-02-16T04:54:04;12.50;;;10.67;;
14688;SDS011;7432;48.728;9.154;2023-02-16T04:56:32;13.10;;;11.00;;
14688;SDS011;7432;48.728;9.154;2023-02-16T04:58:58;13.23;;;10.47;;
14688;SDS011;7432;48.728;9.154;2023-02-16T05:01:26;13.57;;;10.93;;
14688;SDS011;7432;48.728;9.154;2023-02-16T05:03:53;17.47;;;10.67;;
14688;SDS011;7432;48.728;9.154;2023-02-16T05:06:19;12.83;;;10.43;;
14688;SDS011;7432;48.728;9.154;2023-02-16T05:08:46;14.10;;;10.70;;
14688;SDS011;7432;48.728;9.154;2023-02-16T05:11:12;14.40;;;10.60;;
14688;SDS011;7432;48.728;9.154;2023-02-16T05:13:58;14.37;;;10.63;;
14688;SDS011;7432;48.728;9.154;2023-02-16T05:16:43;13.23;;;11.10;;
14688;SDS011;7432;48.728;9.154;2023-02-16T05:19:10;14.53;;;10.97;;
14688;SDS011;7432;48.728;9.154;2023-02-16T05:21:37;11.87;;;10.27;;
14688;SDS011;7432;48.728;9.154;2023-02-16T05:24:04;13.93;;;10.33;;
14688;SDS011;7432;48.728;9.154;2023-02-16T05:26:32;13.53;;;11.10;;
14688;SDS011;7432;48.728;9.154;2023-02-16T05:29:00;14.50;;;10.63;;
14688;SDS011;7432;48.728;9.154;2023-02-16T05:31:27;14.37;;;11.23;;
14688;SDS011;7432;48.728;9.154;2023-02-16T05:33:54;14.97;;;10.77;;
14688;SDS011;7432;48.728;9.154;2023-02-16T05:36:21;13.63;;;11.30;;
14688;SDS011;7432;48.728;9.154;2023-02-16T05:38:47;13.23;;;10.87;;
14688;SDS011;7432;48.728;9.154;2023-02-16T05:41:14;13.97;;;10.87;;
14688;SDS011;7432;48.728;9.154;2023-02-16T05:43:47;13.97;;;10.83;;
14688;SDS011;7432;48.728;9.154;2023-02-16T05:46:15;14.70;;;10.60;;
14688;SDS011;7432;48.728;9.154;2023-02-16T05:48:41;14.50;;;10.83;;
14688;SDS011;7432;48.728;9.154;2023-02-16T05:51:08;14.67;;;11.03;;
14688;SDS011;7432;48.728;9.154;2023-02-16T05:53:34;13.83;;;11.07;;
14688;SDS011;7432;48.728;9.154;2023-02-16T05:56:01;18.40;;;11.53;;
14688;SDS011;7432;48.728;9.154;2023-02-16T05:58:27;14.20;;;11.37;;
14688;SDS011;7432;48.728;9.154;2023-02-16T06:00:54;15.47;;;11.17;;
14688;SDS011;7432;48.728;9.154;2023-02-16T06:03:21;13.63;;;10.93;;
14688;SDS011;7432;48.728;9.154;2023-02-16T06:05:51;14.00;;;10.93;;
14688;SDS011;7432;48.728;9.154;2023-02-16T06:08:17;14.33;;;10.10;;
14688;SDS011;7432;48.728;9.154;2023-02-16T06:10:44;12.67;;;10.63;;
14688;SDS011;7432;48.728;9.154;2023-02-16T06:13:11;14.83;;;11.20;;
14688;SDS011;7432;48.728;9.154;2023-02-16T06:15:37;14.30;;;10.80;;
14688;SDS011;7432;48.728;9.154;2023-02-16T06:18:04;13.43;;;11.07;;
14688;SDS011;7432;48.728;9.154;2023-02-16T06:20:32;13.83;;;10.50;;
14688;SDS011;7432;48.728;9.154;2023-02-16T06:22:58;14.77;;;10.47;;
14688;SDS011;7432;48.728;9.154;2023-02-16T06:25:24;13.10;;;10.30;;
14688;SDS011;7432;48.728;9.154;2023-02-16T06:27:51;15.13;;;11.07;;
14688;SDS011;7432;48.728;9.154;2023-02-16T06:30:17;15.87;;;11.97;;
14688;SDS011;7432;48.728;9.154;2023-02-16T06:32:44;14.53;;;10.77;;
14688;SDS011;7432;48.728;9.154;2023-02-16T06:35:10;14.33;;;11.03;;
14688;SDS011;7432;48.728;9.154;2023-02-16T06:37:38;16.70;;;10.93;;
14688;SDS011;7432;48.728;9.154;2023-02-16T06:40:05;16.63;;;10.33;;
14688;SDS011;7432;48.728;9.154;2023-02-16T06:42:33;15.73;;;11.73;;
14688;SDS011;7432;48.728;9.154;2023-02-16T06:45:00;14.47;;;10.63;;
14688;SDS011;7432;48.728;9.154;2023-02-16T06:47:27;16.30;;;12.37;;
14688;SDS011;7432;48.728;9.154;2023-02-16T06:49:53;16.00;;;11.53;;
14688;SDS011;7432;48.728;9.154;2023-02-16T06:52:19;18.23;;;11.60;;
14688;SDS011;7432;48.728;9.154;2023-02-16T06:54:48;16.20;;;11.57;;
14688;SDS011;7432;48.728;9.154;2023-02-16T06:57:14;15.63;;;11.03;;
14688;SDS011;7432;48.728;9.154;2023-02-16T06:59:41;17.23;;;10.27;;
14688;SDS011;7432;48.728;9.154;2023-02-16T07:02:08;19.57;;;11.87;;
14688;SDS011;7432;48.728;9.154;2023-02-16T07:04:34;19.30;;;12.10;;
14688;SDS011;7432;48.728;9.154;2023-02-16T07:07:01;16.33;;;10.90;;
14688;SDS011;7432;48.728;9.154;2023-02-16T07:09:28;15.87;;;11.37;;
14688;SDS011;7432;48.728;9.154;2023-02-16T07:11:55;16.73;;;11.43;;
14688;SDS011;7432;48.728;9.154;2023-02-16T07:14:22;17.00;;;10.80;;
14688;SDS011;7432;48.728;9.154;2023-02-16T07:16:48;13.60;;;10.87;;
14688;SDS011;7432;48.728;9.154;2023-02-16T07:19:15;13.57;;;11.33;;
14688;SDS011;7432;48.728;9.154;2023-02-16T07:21:41;15.33;;;11.27;;
14688;SDS011;7432;48.728;9.154;2023-02-16T07:24:07;19.07;;;12.17;;
14688;SDS011;7432;48.728;9.154;2023-02-16T07:26:34;14.13;;;11.60;;
14688;SDS011;7432;48.728;9.154;2023-02-16T07:29:04;15.43;;;10.97;;
14688;SDS011;7432;48.728;9.154;2023-02-16T07:31:30;14.07;;;11.47;;
14688;SDS011;7432;48.728;9.154;2023-02-16T07:33:56;14.33;;;10.93;;
14688;SDS011;7432;48.728;9.154;2023-02-16T07:36:23;14.20;;;11.00;;
14688;SDS011;7432;48.728;9.154;2023-02-16T07:38:49;18.17;;;11.77;;
14688;SDS011;7432;48.728;9.154;2023-02-16T07:41:17;14.23;;;10.97;;
14688;SDS011;7432;48.728;9.154;2023-02-16T07:43:44;15.83;;;10.90;;
14688;SDS011;7432;48.728;9.154;2023-02-16T07:46:11;15.13;;;11.33;;
14688;SDS011;7432;48.728;9.154;2023-02-16T07:48:38;17.20;;;10.77;;
14688;SDS011;7432;48.728;9.154;2023-02-16T07:51:04;11.83;;;10.40;;
14688;SDS011;7432;48.728;9.154;2023-02-16T07:53:30;17.37;;;10.43;;
14688;SDS011;7432;48.728;9.154;2023-02-16T07:55:57;13.20;;;10.60;;
14688;SDS011;7432;48.728;9.154;2023-02-16T07:58:23;13.17;;;10.07;;
14688;SDS011;7432;48.728;9.154;2023-02-16T08:00:53;12.13;;;9.77;;
14688;SDS011;7432;48.728;9.154;2023-02-16T08:03:21;12.90;;;10.33;;
14688;SDS011;7432;48.728;9.154;2023-02-16T08:05:48;13.93;;;12.10;;
14688;SDS011;7432;48.728;9.154;2023-02-16T08:08:14;12.10;;;10.97;;
14688;SDS011;7432;48.728;9.154;2023-02-16T08:10:41;13.23;;;11.70;;
14688;SDS011;7432;48.728;9.154;2023-02-16T08:13:07;16.50;;;11.50;;
14688;SDS011;7432;48.728;9.154;2023-02-16T08:15:33;16.20;;;12.32;;
14688;SDS011;7432;48.728;9.154;2023-02-16T08:18:00;18.63;;;11.65;;
14688;SDS011;7432;48.728;9.154;2023-02-16T08:20:28;12.57;;;11.38;;
14688;SDS011;7432;48.728;9.154;2023-02-16T08:22:54;13.25;;;12.00;;
14688;SDS011;7432;48.728;9.154;2023-02-16T08:25:21;13.52;;;12.27;;
14688;SDS011;7432;48.728;9.154;2023-02-16T08:27:47;13.13;;;11.93;;
14688;SDS011;7432;48.728;9.154;2023-02-16T08:30:14;13.63;;;12.20;;
14688;SDS011;7432;48.728;9.154;2023-02-16T08:32:41;13.90;;;12.65;;
14688;SDS011;7432;48.728;9.154;2023-02-16T08:35:08;13.93;;;12.50;;
14688;SDS011;7432;48.728;9.154;2023-02-16T08:37:37;13.95;;;12.43;;
14688;SDS011;7432;48.728;9.154;2023-02-16T08:40:04;13.07;;;11.80;;
14688;SDS011;7432;48.728;9.154;2023-02-16T08:42:33;13.85;;;12.40;;
14688;SDS011;7432;48.728;9.154;2023-02-16T08:45:01;13.02;;;11.82;;
14688;SDS011;7432;48.728;9.154;2023-02-16T08:47:28;13.63;;;12.35;;
14688;SDS011;7432;48.728;9.154;2023-02-16T08:49:54;14.30;;;12.80;;
14688;SDS011;7432;48.728;9.154;2023-02-16T08:52:21;14.32;;;12.73;;
14688;SDS011;7432;48.728;9.154;2023-02-16T08:54:48;13.43;;;12.13;;
14688;SDS011;7432;48.728;9.154;2023-02-16T08:57:15;13.93;;;11.65;;
14688;SDS011;7432;48.728;9.154;2023-02-16T08:59:42;13.50;;;12.25;;
14688;SDS011;7432;48.728;9.154;2023-02-16T09:02:09;12.93;;;11.68;;
14688;SDS011;7432;48.728;9.154;2023-02-16T09:04:36;13.02;;;11.93;;
14688;SDS011;7432;48.728;9.154;2023-02-16T09:07:02;12.50;;;11.30;;
14688;SDS011;7432;48.728;9.154;2023-02-16T09:09:29;13.18;;;11.82;;
14688;SDS011;7432;48.728;9.154;2023-02-16T09:11:57;12.60;;;11.50;;
14688;SDS011;7432;48.728;9.154;2023-02-16T09:14:23;14.48;;;11.93;;
14688;SDS011;7432;48.728;9.154;2023-02-16T09:16:50;13.13;;;11.77;;
14688;SDS011;7432;48.728;9.154;2023-02-16T09:19:17;13.98;;;12.57;;
14688;SDS011;7432;48.728;9.154;2023-02-16T09:21:45;15.10;;;12.25;;
14688;SDS011;7432;48.728;9.154;2023-02-16T09:24:12;13.60;;;11.90;;
14688;SDS011;7432;48.728;9.154;2023-02-16T09:26:39;14.50;;;12.98;;
14688;SDS011;7432;48.728;9.154;2023-02-16T09:29:08;13.43;;;12.02;;
14688;SDS011;7432;48.728;9.154;2023-02-16T09:31:36;15.43;;;12.50;;
14688;SDS011;7432;48.728;9.154;2023-02-16T09:34:05;16.37;;;12.07;;
14688;SDS011;7432;48.728;9.154;2023-02-16T09:36:33;13.67;;;11.60;;
14688;SDS011;7432;48.728;9.154;2023-02-16T09:38:59;12.80;;;11.50;;
14688;SDS011;7432;48.728;9.154;2023-02-16T09:41:28;13.00;;;11.10;;
14688;SDS011;7432;48.728;9.154;2023-02-16T09:44:02;12.50;;;11.20;;
14688;SDS011;7432;48.728;9.154;2023-02-16T09:46:42;12.00;;;10.90;;
14688;SDS011;7432;48.728;9.154;2023-02-16T09:49:10;12.77;;;11.43;;
14688;SDS011;7432;48.728;9.154;2023-02-16T09:51:48;11.60;;;10.40;;
14688;SDS011;7432;48.728;9.154;2023-02-16T09:54:21;52.20;;;12.37;;
14688;SDS011;7432;48.728;9.154;2023-02-16T09:56:59;12.40;;;9.87;;
14688;SDS011;7432;48.728;9.154;2023-02-16T09:59:37;10.83;;;9.83;;
14688;SDS011;7432;48.728;9.154;2023-02-16T10:02:18;10.80;;;9.70;;
14688;SDS011;7432;48.728;9.154;2023-02-16T10:04:54;12.37;;;9.60;;
14688;SDS011;7432;48.728;9.154;2023-02-16T10:07:38;9.93;;;9.00;;
14688;SDS011;7432;48.728;9.154;2023-02-16T10:10:10;11.60;;;10.50;;
14688;SDS011;7432;48.728;9.154;2023-02-16T10:12:41;11.43;;;10.13;;
14688;SDS011;7432;48.728;9.154;2023-02-16T10:15:16;10.47;;;8.93;;
14688;SDS011;7432;48.728;9.154;2023-02-16T10:17:47;11.10;;;9.90;;
14688;SDS011;7432;48.728;9.154;2023-02-16T10:20:17;11.80;;;9.27;;
14688;SDS011;7432;48.728;9.154;2023-02-16T10:22:48;12.47;;;9.50;;
14688;SDS011;7432;48.728;9.154;2023-02-16T10:25:20;11.77;;;9.53;;
14688;SDS011;7432;48.728;9.154;2023-02-16T10:27:53;10.97;;;9.83;;
14688;SDS011;7432;48.728;9.154;2023-02-16T10:30:30;10.93;;;9.43;;
14688;SDS011;7432;48.728;9.154;2023-02-16T10:32:58;10.33;;;9.33;;
14688;SDS011;7432;48.728;9.154;2023-02-16T10:35:35;10.63;;;9.47;;
14688;SDS011;7432;48.728;9.154;2023-02-16T10:38:10;10.13;;;9.13;;
14688;SDS011;7432;48.728;9.154;2023-02-16T10:40:43;11.10;;;9.73;;
14688;SDS011;7432;48.728;9.154;2023-02-16T10:43:16;9.90;;;8.70;;
14688;SDS011;7432;48.728;9.154;2023-02-16T10:45:48;10.27;;;9.37;;
14688;SDS011;7432;48.728;9.154;2023-02-16T10:48:16;11.23;;;9.47;;
14688;SDS011;7432;48.728;9.154;2023-02-16T10:50:45;10.70;;;9.70;;
14688;SDS011;7432;48.728;9.154;2023-02-16T10:53:23;10.23;;;9.23;;
14688;SDS011;7432;48.728;9.154;2023-02-16T10:56:01;13.73;;;8.77;;
14688;SDS011;7432;48.728;9.154;2023-02-16T10:58:44;9.97;;;8.53;;
14688;SDS011;7432;48.728;9.154;2023-02-16T11:01:14;10.53;;;9.53;;
14688;SDS011;7432;48.728;9.154;2023-02-16T11:03:45;10.27;;;9.37;;
14688;SDS011;7432;48.728;9.154;2023-02-16T11:06:15;9.97;;;8.80;;
14688;SDS011;7432;48.728;9.154;2023-02-16T11:08:47;9.60;;;8.60;;
14688;SDS011;7432;48.728;9.154;2023-02-16T11:11:14;11.27;;;8.40;;
14688;SDS011;7432;48.728;9.154;2023-02-16T11:13:42;9.50;;;8.60;;
14688;SDS011;7432;48.728;9.154;2023-02-16T11:16:19;9.27;;;8.47;;
14688;SDS011;7432;48.728;9.154;2023-02-16T11:18:54;9.07;;;8.27;;
14688;SDS011;7432;48.728;9.154;2023-02-16T11:21:40;10.50;;;9.33;;
14688;SDS011;7432;48.728;9.154;2023-02-16T11:24:09;9.23;;;8.33;;
14688;SDS011;7432;48.728;9.154;2023-02-16T11:26:38;9.70;;;8.43;;
14688;SDS011;7432;48.728;9.154;2023-02-16T11:29:05;9.33;;;8.17;;
14688;SDS011;7432;48.728;9.154;2023-02-16T11:31:43;9.73;;;8.60;;
14688;SDS011;7432;48.728;9.154;2023-02-16T11:34:11;9.07;;;8.17;;
14688;SDS011;7432;48.728;9.154;2023-02-16T11:36:47;10.03;;;9.03;;
14688;SDS011;7432;48.728;9.154;2023-02-16T11:39:14;8.30;;;7.60;;
14688;SDS011;7432;48.728;9.154;2023-02-16T11:41:47;9.73;;;7.90;;
14688;SDS011;7432;48.728;9.154;2023-02-16T11:44:19;8.93;;;8.03;;
14688;SDS011;7432;48.728;9.154;2023-02-16T11:46:52;11.73;;;8.30;;
14688;SDS011;7432;48.728;9.154;2023-02-16T11:49:26;9.60;;;8.70;;
14688;SDS011;7432;48.728;9.154;2023-02-16T11:51:56;8.57;;;7.87;;
14688;SDS011;7432;48.728;9.154;2023-02-16T11:54:22;10.20;;;9.00;;
14688;SDS011;7432;48.728;9.154;2023-02-16T11:57:00;8.90;;;8.10;;
14688;SDS011;7432;48.728;9.154;2023-02-16T11:59:28;11.13;;;8.37;;
14688;SDS011;7432;48.728;9.154;2023-02-16T12:05:22;9.13;;;8.23;;
14688;SDS011;7432;48.728;9.154;2023-02-16T12:07:57;7.33;;;6.40;;
14688;SDS011;7432;48.728;9.154;2023-02-16T12:10:33;8.87;;;7.83;;
14688;SDS011;7432;48.728;9.154;2023-02-16T12:13:09;9.17;;;8.37;;
14688;SDS011;7432;48.728;9.154;2023-02-16T12:15:44;8.50;;;7.80;;
14688;SDS011;7432;48.728;9.154;2023-02-16T12:18:20;9.10;;;8.10;;
14688;SDS011;7432;48.728;9.154;2023-02-16T12:20:56;7.80;;;7.10;;
14688;SDS011;7432;48.728;9.154;2023-02-16T12:23:32;8.83;;;7.90;;
14688;SDS011;7432;48.728;9.154;2023-02-16T12:26:13;8.83;;;8.03;;
14688;SDS011;7432;48.728;9.154;2023-02-16T12:28:57;8.37;;;7.67;;
14688;SDS011;7432;48.728;9.154;2023-02-16T12:31:28;8.43;;;7.57;;
14688;SDS011;7432;48.728;9.154;2023-02-16T12:34:07;8.90;;;6.97;;
14688;SDS011;7432;48.728;9.154;2023-02-16T12:36:44;8.93;;;7.47;;
14688;SDS011;7432;48.728;9.154;2023-02-16T12:39:20;7.23;;;6.63;;
14688;SDS011;7432;48.728;9.154;2023-02-16T12:41:52;7.87;;;7.13;;
14688;SDS011;7432;48.728;9.154;2023-02-16T12:44:29;11.37;;;7.87;;
14688;SDS011;7432;48.728;9.154;2023-02-16T12:47:01;8.20;;;6.93;;
14688;SDS011;7432;48.728;9.154;2023-02-16T12:49:42;8.37;;;7.47;;
14688;SDS011;7432;48.728;9.154;2023-02-16T12:52:18;8.23;;;7.40;;
14688;SDS011;7432;48.728;9.154;2023-02-16T12:54:56;7.77;;;7.10;;
14688;SDS011;7432;48.728;9.154;2023-02-16T12:57:29;7.87;;;7.07;;
14688;SDS011;7432;48.728;9.154;2023-02-16T12:59:58;9.90;;;7.60;;
14688;SDS011;7432;48.728;9.154;2023-02-16T13:02:30;8.00;;;7.27;;
14688;SDS011;7432;48.728;9.154;2023-02-16T13:05:04;7.57;;;6.77;;
14688;SDS011;7432;48.728;9.154;2023-02-16T13:07:36;8.00;;;7.27;;
14688;SDS011;7432;48.728;9.154;2023-02-16T13:10:06;8.27;;;7.47;;
14688;SDS011;7432;48.728;9.154;2023-02-16T13:12:46;8.03;;;7.33;;
14688;SDS011;7432;48.728;9.154;2023-02-16T13:15:16;7.10;;;6.53;;
14688;SDS011;7432;48.728;9.154;2023-02-16T13:17:46;7.87;;;7.03;;
14688;SDS011;7432;48.728;9.154;2023-02-16T13:20:17;9.77;;;6.90;;
14688;SDS011;7432;48.728;9.154;2023-02-16T13:22:47;8.23;;;6.60;;
14688;SDS011;7432;48.728;9.154;2023-02-16T13:25:49;6.83;;;6.20;;
14688;SDS011;7432;48.728;9.154;2023-02-16T13:28:32;9.70;;;6.50;;
14688;SDS011;7432;48.728;9.154;2023-02-16T13:31:14;7.53;;;6.30;;
14688;SDS011;7432;48.728;9.154;2023-02-16T13:33:55;8.53;;;6.60;;
14688;SDS011;7432;48.728;9.154;2023-02-16T13:36:41;7.17;;;6.57;;
14688;SDS011;7432;48.728;9.154;2023-02-16T13:39:22;6.27;;;5.77;;
14688;SDS011;7432;48.728;9.154;2023-02-16T13:42:03;7.43;;;6.70;;
14688;SDS011;7432;48.728;9.154;2023-02-16T13:44:46;7.30;;;6.70;;
14688;SDS011;7432;48.728;9.154;2023-02-16T13:47:16;6.47;;;5.87;;
14688;SDS011;7432;48.728;9.154;2023-02-16T13:49:46;6.37;;;5.93;;
14688;SDS011;7432;48.728;9.154;2023-02-16T13:52:26;6.20;;;5.60;;
14688;SDS011;7432;48.728;9.154;2023-02-16T13:54:55;6.63;;;5.93;;
14688;SDS011;7432;48.728;9.154;2023-02-16T14:00:26;8.83;;;7.90;;
14688;SDS011;7432;48.728;9.154;2023-02-16T14:02:58;10.93;;;9.27;;
14688;SDS011;7432;48.728;9.154;2023-02-16T14:05:29;11.37;;;9.60;;
14688;SDS011;7432;48.728;9.154;2023-02-16T14:08:09;10.87;;;9.67;;
14688;SDS011;7432;48.728;9.154;2023-02-16T14:10:55;14.33;;;11.17;;
14688;SDS011;7432;48.728;9.154;2023-02-16T14:13:28;13.53;;;9.30;;
14688;SDS011;7432;48.728;9.154;2023-02-16T14:15:57;11.70;;;10.60;;
14688;SDS011;7432;48.728;9.154;2023-02-16T14:18:29;14.27;;;9.77;;
14688;SDS011;7432;48.728;9.154;2023-02-16T14:21:00;10.50;;;9.47;;
14688;SDS011;7432;48.728;9.154;2023-02-16T14:23:28;11.53;;;10.33;;
14688;SDS011;7432;48.728;9.154;2023-02-16T14:26:01;19.40;;;11.23;;
14688;SDS011;7432;48.728;9.154;2023-02-16T14:28:49;15.23;;;11.47;;
14688;SDS011;7432;48.728;9.154;2023-02-16T14:31:22;11.73;;;10.50;;
14688;SDS011;7432;48.728;9.154;2023-02-16T14:33:54;12.23;;;10.70;;
14688;SDS011;7432;48.728;9.154;2023-02-16T14:36:28;13.30;;;9.70;;
14688;SDS011;7432;48.728;9.154;2023-02-16T14:38:57;9.17;;;8.37;;
14688;SDS011;7432;48.728;9.154;2023-02-16T14:41:26;10.33;;;6.77;;
14688;SDS011;7432;48.728;9.154;2023-02-16T14:44:20;6.20;;;5.70;;
14688;SDS011;7432;48.728;9.154;2023-02-16T14:47:02;6.90;;;6.20;;
14688;SDS011;7432;48.728;9.154;2023-02-16T14:49:46;7.63;;;6.60;;
14688;SDS011;7432;48.728;9.154;2023-02-16T14:52:35;6.63;;;6.20;;
14688;SDS011;7432;48.728;9.154;2023-02-16T14:58:20;5.90;;;5.50;;
14688;SDS011;7432;48.728;9.154;2023-02-16T15:00:52;7.03;;;6.47;;
14688;SDS011;7432;48.728;9.154;2023-02-16T15:03:23;6.40;;;5.80;;
14688;SDS011;7432;48.728;9.154;2023-02-16T15:05:53;6.50;;;6.00;;
14688;SDS011;7432;48.728;9.154;2023-02-16T15:08:22;7.00;;;6.40;;
14688;SDS011;7432;48.728;9.154;2023-02-16T15:11:00;8.00;;;6.80;;
14688;SDS011;7432;48.728;9.154;2023-02-16T15:13:38;8.87;;;6.70;;
14688;SDS011;7432;48.728;9.154;2023-02-16T15:16:06;6.73;;;6.13;;